sensor_id;sensor_type;location;lat;lon;timestamp;P1;durP1;ratioP1;P2;durP2;ratioP2
26014;SDS011;13793;55.388;37.844;2022-12-18T00:00:18;32.20;;;16.80;;
26014;SDS011;13793;55.388;37.844;2022-12-18T00:02:48;29.73;;;16.27;;
26014;SDS011;13793;55.388;37.844;2022-12-18T00:05:19;41.53;;;16.57;;
26014;SDS011;13793;55.388;37.844;2022-12-18T00:07:50;29.50;;;16.17;;
26014;SDS011;13793;55.388;37.844;2022-12-18T00:10:20;30.00;;;14.93;;
26014;SDS011;13793;55.388;37.844;2022-12-18T00:12:51;28.10;;;15.43;;
26014;SDS011;13793;55.388;37.844;2022-12-18T00:15:22;26.43;;;15.50;;
26014;SDS011;13793;55.388;37.844;2022-12-18T00:17:53;27.37;;;15.70;;
26014;SDS011;13793;55.388;37.844;2022-12-18T00:20:24;26.30;;;14.73;;
26014;SDS011;13793;55.388;37.844;2022-12-18T00:22:54;27.10;;;15.20;;
26014;SDS011;13793;55.388;37.844;2022-12-18T00:25:25;26.77;;;14.80;;
26014;SDS011;13793;55.388;37.844;2022-12-18T00:27:56;26.13;;;15.30;;
26014;SDS011;13793;55.388;37.844;2022-12-18T00:30:26;29.23;;;15.70;;
26014;SDS011;13793;55.388;37.844;2022-12-18T00:32:57;27.13;;;15.47;;
26014;SDS011;13793;55.388;37.844;2022-12-18T00:35:28;25.77;;;14.03;;
26014;SDS011;13793;55.388;37.844;2022-12-18T00:37:59;27.23;;;14.60;;
26014;SDS011;13793;55.388;37.844;2022-12-18T00:40:29;24.23;;;14.00;;
26014;SDS011;13793;55.388;37.844;2022-12-18T00:43:00;23.70;;;14.73;;
26014;SDS011;13793;55.388;37.844;2022-12-18T00:45:31;23.40;;;13.67;;
26014;SDS011;13793;55.388;37.844;2022-12-18T00:48:01;22.33;;;13.47;;
26014;SDS011;13793;55.388;37.844;2022-12-18T00:50:32;21.33;;;13.40;;
26014;SDS011;13793;55.388;37.844;2022-12-18T00:53:03;25.90;;;14.20;;
26014;SDS011;13793;55.388;37.844;2022-12-18T00:55:34;22.00;;;12.93;;
26014;SDS011;13793;55.388;37.844;2022-12-18T00:58:05;25.83;;;13.40;;
26014;SDS011;13793;55.388;37.844;2022-12-18T01:00:36;23.10;;;14.00;;
26014;SDS011;13793;55.388;37.844;2022-12-18T01:03:07;24.47;;;14.30;;
26014;SDS011;13793;55.388;37.844;2022-12-18T01:05:39;22.40;;;13.57;;
26014;SDS011;13793;55.388;37.844;2022-12-18T01:08:10;21.97;;;12.80;;
26014;SDS011;13793;55.388;37.844;2022-12-18T01:10:42;22.73;;;13.17;;
26014;SDS011;13793;55.388;37.844;2022-12-18T01:13:13;22.67;;;12.80;;
26014;SDS011;13793;55.388;37.844;2022-12-18T01:15:49;21.80;;;12.43;;
26014;SDS011;13793;55.388;37.844;2022-12-18T01:18:20;22.22;;;11.95;;
26014;SDS011;13793;55.388;37.844;2022-12-18T01:20:52;20.47;;;11.93;;
26014;SDS011;13793;55.388;37.844;2022-12-18T01:23:22;21.20;;;12.83;;
26014;SDS011;13793;55.388;37.844;2022-12-18T01:25:53;23.00;;;12.30;;
26014;SDS011;13793;55.388;37.844;2022-12-18T01:28:24;23.33;;;13.13;;
26014;SDS011;13793;55.388;37.844;2022-12-18T01:30:55;23.03;;;12.03;;
26014;SDS011;13793;55.388;37.844;2022-12-18T01:33:26;21.33;;;12.13;;
26014;SDS011;13793;55.388;37.844;2022-12-18T01:35:56;20.40;;;11.80;;
26014;SDS011;13793;55.388;37.844;2022-12-18T01:38:28;18.77;;;11.63;;
26014;SDS011;13793;55.388;37.844;2022-12-18T01:40:59;19.93;;;12.30;;
26014;SDS011;13793;55.388;37.844;2022-12-18T01:43:49;20.60;;;12.03;;
26014;SDS011;13793;55.388;37.844;2022-12-18T01:46:22;18.57;;;11.53;;
26014;SDS011;13793;55.388;37.844;2022-12-18T01:49:00;20.07;;;12.03;;
26014;SDS011;13793;55.388;37.844;2022-12-18T01:51:31;19.63;;;11.37;;
26014;SDS011;13793;55.388;37.844;2022-12-18T01:54:02;19.43;;;11.87;;
26014;SDS011;13793;55.388;37.844;2022-12-18T01:56:32;19.77;;;12.17;;
26014;SDS011;13793;55.388;37.844;2022-12-18T01:59:04;20.57;;;12.27;;
26014;SDS011;13793;55.388;37.844;2022-12-18T02:01:36;20.27;;;11.83;;
26014;SDS011;13793;55.388;37.844;2022-12-18T02:04:19;19.73;;;11.60;;
26014;SDS011;13793;55.388;37.844;2022-12-18T02:09:48;20.17;;;11.57;;
26014;SDS011;13793;55.388;37.844;2022-12-18T02:12:34;21.30;;;12.67;;
26014;SDS011;13793;55.388;37.844;2022-12-18T02:15:08;20.00;;;11.73;;
26014;SDS011;13793;55.388;37.844;2022-12-18T02:23:00;20.87;;;11.83;;
26014;SDS011;13793;55.388;37.844;2022-12-18T02:28:40;19.17;;;11.17;;
26014;SDS011;13793;55.388;37.844;2022-12-18T02:31:11;16.57;;;10.57;;
26014;SDS011;13793;55.388;37.844;2022-12-18T02:33:44;19.60;;;10.70;;
26014;SDS011;13793;55.388;37.844;2022-12-18T02:36:15;17.77;;;11.10;;
26014;SDS011;13793;55.388;37.844;2022-12-18T02:38:46;17.47;;;11.13;;
26014;SDS011;13793;55.388;37.844;2022-12-18T02:41:20;18.63;;;11.20;;
26014;SDS011;13793;55.388;37.844;2022-12-18T02:43:53;17.33;;;10.40;;
26014;SDS011;13793;55.388;37.844;2022-12-18T02:46:32;16.53;;;10.27;;
26014;SDS011;13793;55.388;37.844;2022-12-18T02:57:30;17.00;;;10.50;;
26014;SDS011;13793;55.388;37.844;2022-12-18T03:00:26;18.47;;;11.37;;
26014;SDS011;13793;55.388;37.844;2022-12-18T03:03:09;17.83;;;11.20;;
26014;SDS011;13793;55.388;37.844;2022-12-18T03:05:47;17.97;;;10.37;;
26014;SDS011;13793;55.388;37.844;2022-12-18T03:08:27;17.33;;;10.33;;
26014;SDS011;13793;55.388;37.844;2022-12-18T03:11:18;17.47;;;10.30;;
26014;SDS011;13793;55.388;37.844;2022-12-18T03:13:45;21.40;;;11.73;;
26014;SDS011;13793;55.388;37.844;2022-12-18T03:16:27;17.83;;;10.53;;
26014;SDS011;13793;55.388;37.844;2022-12-18T03:19:00;17.90;;;10.47;;
26014;SDS011;13793;55.388;37.844;2022-12-18T03:21:38;19.53;;;10.97;;
26014;SDS011;13793;55.388;37.844;2022-12-18T03:24:07;19.33;;;12.10;;
26014;SDS011;13793;55.388;37.844;2022-12-18T03:26:40;18.17;;;11.63;;
26014;SDS011;13793;55.388;37.844;2022-12-18T03:29:17;22.60;;;14.60;;
26014;SDS011;13793;55.388;37.844;2022-12-18T03:32:01;25.88;;;15.90;;
26014;SDS011;13793;55.388;37.844;2022-12-18T03:34:30;27.50;;;16.67;;
26014;SDS011;13793;55.388;37.844;2022-12-18T03:37:03;25.93;;;16.93;;
26014;SDS011;13793;55.388;37.844;2022-12-18T03:39:35;27.27;;;16.83;;
26014;SDS011;13793;55.388;37.844;2022-12-18T03:48:08;22.00;;;13.70;;
26014;SDS011;13793;55.388;37.844;2022-12-18T03:50:55;18.73;;;12.93;;
26014;SDS011;13793;55.388;37.844;2022-12-18T03:56:01;21.50;;;12.10;;
26014;SDS011;13793;55.388;37.844;2022-12-18T03:58:34;19.47;;;11.60;;
26014;SDS011;13793;55.388;37.844;2022-12-18T04:01:08;18.63;;;12.10;;
26014;SDS011;13793;55.388;37.844;2022-12-18T04:03:41;20.27;;;11.37;;
26014;SDS011;13793;55.388;37.844;2022-12-18T04:06:13;18.37;;;11.27;;
26014;SDS011;13793;55.388;37.844;2022-12-18T04:08:45;16.40;;;10.43;;
26014;SDS011;13793;55.388;37.844;2022-12-18T04:11:18;16.47;;;10.27;;
26014;SDS011;13793;55.388;37.844;2022-12-18T04:13:49;17.70;;;10.70;;
26014;SDS011;13793;55.388;37.844;2022-12-18T04:16:21;17.33;;;10.33;;
26014;SDS011;13793;55.388;37.844;2022-12-18T04:18:54;17.40;;;10.63;;
26014;SDS011;13793;55.388;37.844;2022-12-18T04:21:26;16.27;;;10.40;;
26014;SDS011;13793;55.388;37.844;2022-12-18T04:23:56;16.97;;;10.30;;
26014;SDS011;13793;55.388;37.844;2022-12-18T04:26:29;19.17;;;10.67;;
26014;SDS011;13793;55.388;37.844;2022-12-18T04:29:01;18.07;;;11.20;;
26014;SDS011;13793;55.388;37.844;2022-12-18T04:31:32;18.70;;;10.87;;
26014;SDS011;13793;55.388;37.844;2022-12-18T04:34:03;16.93;;;10.53;;
26014;SDS011;13793;55.388;37.844;2022-12-18T04:36:36;18.60;;;10.70;;
26014;SDS011;13793;55.388;37.844;2022-12-18T04:39:08;17.30;;;11.23;;
26014;SDS011;13793;55.388;37.844;2022-12-18T04:41:41;17.50;;;10.80;;
26014;SDS011;13793;55.388;37.844;2022-12-18T04:44:13;16.93;;;10.20;;
26014;SDS011;13793;55.388;37.844;2022-12-18T04:46:44;18.93;;;10.90;;
26014;SDS011;13793;55.388;37.844;2022-12-18T04:49:15;17.77;;;10.47;;
26014;SDS011;13793;55.388;37.844;2022-12-18T04:51:45;15.63;;;9.87;;
26014;SDS011;13793;55.388;37.844;2022-12-18T04:54:16;17.43;;;10.80;;
26014;SDS011;13793;55.388;37.844;2022-12-18T04:56:49;16.73;;;10.20;;
26014;SDS011;13793;55.388;37.844;2022-12-18T04:59:19;18.00;;;10.77;;
26014;SDS011;13793;55.388;37.844;2022-12-18T05:01:50;18.50;;;10.50;;
26014;SDS011;13793;55.388;37.844;2022-12-18T05:04:21;17.27;;;10.77;;
26014;SDS011;13793;55.388;37.844;2022-12-18T05:06:52;19.13;;;10.47;;
26014;SDS011;13793;55.388;37.844;2022-12-18T05:09:23;16.30;;;10.27;;
26014;SDS011;13793;55.388;37.844;2022-12-18T05:11:53;16.53;;;10.03;;
26014;SDS011;13793;55.388;37.844;2022-12-18T05:14:24;19.17;;;11.20;;
26014;SDS011;13793;55.388;37.844;2022-12-18T05:16:56;17.83;;;10.57;;
26014;SDS011;13793;55.388;37.844;2022-12-18T05:19:26;17.83;;;10.37;;
26014;SDS011;13793;55.388;37.844;2022-12-18T05:21:57;20.37;;;10.37;;
26014;SDS011;13793;55.388;37.844;2022-12-18T05:24:28;16.73;;;10.57;;
26014;SDS011;13793;55.388;37.844;2022-12-18T05:26:58;16.30;;;10.33;;
26014;SDS011;13793;55.388;37.844;2022-12-18T05:29:30;17.50;;;11.20;;
26014;SDS011;13793;55.388;37.844;2022-12-18T05:32:01;17.50;;;11.20;;
26014;SDS011;13793;55.388;37.844;2022-12-18T05:34:32;16.47;;;10.30;;
26014;SDS011;13793;55.388;37.844;2022-12-18T05:37:03;15.43;;;9.67;;
26014;SDS011;13793;55.388;37.844;2022-12-18T05:39:35;19.17;;;11.07;;
26014;SDS011;13793;55.388;37.844;2022-12-18T05:42:06;16.57;;;10.03;;
26014;SDS011;13793;55.388;37.844;2022-12-18T05:44:37;17.10;;;9.87;;
26014;SDS011;13793;55.388;37.844;2022-12-18T05:47:09;16.67;;;10.00;;
26014;SDS011;13793;55.388;37.844;2022-12-18T05:49:40;16.10;;;10.00;;
26014;SDS011;13793;55.388;37.844;2022-12-18T05:52:12;16.27;;;9.77;;
26014;SDS011;13793;55.388;37.844;2022-12-18T05:54:44;15.17;;;9.73;;
26014;SDS011;13793;55.388;37.844;2022-12-18T05:57:15;15.53;;;10.23;;
26014;SDS011;13793;55.388;37.844;2022-12-18T05:59:47;15.40;;;10.00;;
26014;SDS011;13793;55.388;37.844;2022-12-18T06:02:20;15.27;;;9.40;;
26014;SDS011;13793;55.388;37.844;2022-12-18T06:04:51;15.03;;;9.77;;
26014;SDS011;13793;55.388;37.844;2022-12-18T06:07:24;16.57;;;9.87;;
26014;SDS011;13793;55.388;37.844;2022-12-18T06:09:55;14.50;;;9.40;;
26014;SDS011;13793;55.388;37.844;2022-12-18T06:12:29;16.23;;;9.90;;
26014;SDS011;13793;55.388;37.844;2022-12-18T06:15:02;15.77;;;10.07;;
26014;SDS011;13793;55.388;37.844;2022-12-18T06:17:35;17.30;;;9.77;;
26014;SDS011;13793;55.388;37.844;2022-12-18T06:20:10;15.13;;;9.37;;
26014;SDS011;13793;55.388;37.844;2022-12-18T06:22:44;15.53;;;9.60;;
26014;SDS011;13793;55.388;37.844;2022-12-18T06:25:15;16.90;;;9.67;;
26014;SDS011;13793;55.388;37.844;2022-12-18T06:27:50;14.03;;;9.10;;
26014;SDS011;13793;55.388;37.844;2022-12-18T06:30:27;15.87;;;9.57;;
26014;SDS011;13793;55.388;37.844;2022-12-18T06:33:05;15.43;;;9.23;;
26014;SDS011;13793;55.388;37.844;2022-12-18T06:35:39;14.60;;;8.70;;
26014;SDS011;13793;55.388;37.844;2022-12-18T06:38:18;15.53;;;9.37;;
26014;SDS011;13793;55.388;37.844;2022-12-18T06:40:50;14.90;;;8.97;;
26014;SDS011;13793;55.388;37.844;2022-12-18T06:43:26;13.90;;;8.90;;
26014;SDS011;13793;55.388;37.844;2022-12-18T06:46:03;14.73;;;9.23;;
26014;SDS011;13793;55.388;37.844;2022-12-18T06:48:36;14.43;;;8.90;;
26014;SDS011;13793;55.388;37.844;2022-12-18T06:51:12;17.13;;;9.57;;
26014;SDS011;13793;55.388;37.844;2022-12-18T06:53:53;15.57;;;9.07;;
26014;SDS011;13793;55.388;37.844;2022-12-18T06:56:33;14.10;;;9.07;;
26014;SDS011;13793;55.388;37.844;2022-12-18T06:59:10;15.37;;;9.50;;
26014;SDS011;13793;55.388;37.844;2022-12-18T07:01:45;14.43;;;8.93;;
26014;SDS011;13793;55.388;37.844;2022-12-18T07:06:58;13.27;;;8.53;;
26014;SDS011;13793;55.388;37.844;2022-12-18T07:09:32;13.37;;;8.47;;
26014;SDS011;13793;55.388;37.844;2022-12-18T07:12:13;13.57;;;9.00;;
26014;SDS011;13793;55.388;37.844;2022-12-18T07:14:46;13.47;;;8.67;;
26014;SDS011;13793;55.388;37.844;2022-12-18T07:17:23;15.28;;;9.35;;
26014;SDS011;13793;55.388;37.844;2022-12-18T07:19:58;13.43;;;8.27;;
26014;SDS011;13793;55.388;37.844;2022-12-18T07:22:35;13.90;;;9.20;;
26014;SDS011;13793;55.388;37.844;2022-12-18T07:25:19;14.93;;;8.90;;
26014;SDS011;13793;55.388;37.844;2022-12-18T07:27:57;15.03;;;9.00;;
26014;SDS011;13793;55.388;37.844;2022-12-18T07:30:36;12.80;;;8.80;;
26014;SDS011;13793;55.388;37.844;2022-12-18T07:33:18;14.97;;;8.93;;
26014;SDS011;13793;55.388;37.844;2022-12-18T07:35:54;12.93;;;8.50;;
26014;SDS011;13793;55.388;37.844;2022-12-18T07:38:33;13.33;;;8.67;;
26014;SDS011;13793;55.388;37.844;2022-12-18T07:41:14;14.50;;;8.90;;
26014;SDS011;13793;55.388;37.844;2022-12-18T07:43:58;13.37;;;8.90;;
26014;SDS011;13793;55.388;37.844;2022-12-18T07:46:42;13.77;;;8.77;;
26014;SDS011;13793;55.388;37.844;2022-12-18T07:49:23;13.90;;;8.73;;
26014;SDS011;13793;55.388;37.844;2022-12-18T07:52:05;14.37;;;9.37;;
26014;SDS011;13793;55.388;37.844;2022-12-18T07:54:53;14.80;;;9.17;;
26014;SDS011;13793;55.388;37.844;2022-12-18T07:57:27;12.60;;;8.80;;
26014;SDS011;13793;55.388;37.844;2022-12-18T08:00:07;14.95;;;9.10;;
26014;SDS011;13793;55.388;37.844;2022-12-18T08:02:48;13.63;;;8.47;;
26014;SDS011;13793;55.388;37.844;2022-12-18T08:05:33;13.87;;;8.80;;
26014;SDS011;13793;55.388;37.844;2022-12-18T08:08:12;13.20;;;8.93;;
26014;SDS011;13793;55.388;37.844;2022-12-18T08:10:55;14.53;;;9.30;;
26014;SDS011;13793;55.388;37.844;2022-12-18T08:13:34;13.87;;;8.63;;
26014;SDS011;13793;55.388;37.844;2022-12-18T08:16:11;13.10;;;8.60;;
26014;SDS011;13793;55.388;37.844;2022-12-18T08:18:52;12.10;;;8.40;;
26014;SDS011;13793;55.388;37.844;2022-12-18T08:21:30;14.03;;;9.53;;
26014;SDS011;13793;55.388;37.844;2022-12-18T08:24:17;16.53;;;9.37;;
26014;SDS011;13793;55.388;37.844;2022-12-18T08:26:56;13.63;;;8.70;;
26014;SDS011;13793;55.388;37.844;2022-12-18T08:29:41;13.47;;;8.57;;
26014;SDS011;13793;55.388;37.844;2022-12-18T08:32:27;13.73;;;9.43;;
26014;SDS011;13793;55.388;37.844;2022-12-18T08:35:10;14.40;;;8.70;;
26014;SDS011;13793;55.388;37.844;2022-12-18T08:37:49;14.60;;;9.10;;
26014;SDS011;13793;55.388;37.844;2022-12-18T08:40:29;14.28;;;9.05;;
26014;SDS011;13793;55.388;37.844;2022-12-18T08:43:17;14.27;;;8.27;;
26014;SDS011;13793;55.388;37.844;2022-12-18T08:46:12;14.53;;;9.23;;
26014;SDS011;13793;55.388;37.844;2022-12-18T08:48:53;18.43;;;11.67;;
26014;SDS011;13793;55.388;37.844;2022-12-18T08:51:33;15.63;;;9.57;;
26014;SDS011;13793;55.388;37.844;2022-12-18T08:54:15;17.10;;;10.80;;
26014;SDS011;13793;55.388;37.844;2022-12-18T08:56:58;15.43;;;9.77;;
26014;SDS011;13793;55.388;37.844;2022-12-18T08:59:33;14.50;;;9.27;;
26014;SDS011;13793;55.388;37.844;2022-12-18T09:02:18;14.50;;;9.27;;
26014;SDS011;13793;55.388;37.844;2022-12-18T09:05:05;15.20;;;10.30;;
26014;SDS011;13793;55.388;37.844;2022-12-18T09:07:46;15.27;;;9.40;;
26014;SDS011;13793;55.388;37.844;2022-12-18T09:10:25;16.43;;;10.57;;
26014;SDS011;13793;55.388;37.844;2022-12-18T09:13:06;15.80;;;10.97;;
26014;SDS011;13793;55.388;37.844;2022-12-18T09:15:51;15.88;;;11.65;;
26014;SDS011;13793;55.388;37.844;2022-12-18T09:18:36;15.07;;;9.10;;
26014;SDS011;13793;55.388;37.844;2022-12-18T09:21:29;15.63;;;9.90;;
26014;SDS011;13793;55.388;37.844;2022-12-18T09:24:13;15.87;;;8.97;;
26014;SDS011;13793;55.388;37.844;2022-12-18T09:27:01;10.67;;;6.37;;
26014;SDS011;13793;55.388;37.844;2022-12-18T09:29:43;16.53;;;10.00;;
26014;SDS011;13793;55.388;37.844;2022-12-18T09:32:31;12.90;;;8.87;;
26014;SDS011;13793;55.388;37.844;2022-12-18T09:35:17;14.25;;;9.08;;
26014;SDS011;13793;55.388;37.844;2022-12-18T09:38:03;20.40;;;13.30;;
26014;SDS011;13793;55.388;37.844;2022-12-18T09:40:46;15.77;;;10.40;;
26014;SDS011;13793;55.388;37.844;2022-12-18T09:46:10;14.33;;;9.37;;
26014;SDS011;13793;55.388;37.844;2022-12-18T09:48:48;15.23;;;9.53;;
26014;SDS011;13793;55.388;37.844;2022-12-18T09:54:21;19.60;;;10.87;;
26014;SDS011;13793;55.388;37.844;2022-12-18T09:57:04;18.17;;;11.88;;
26014;SDS011;13793;55.388;37.844;2022-12-18T09:59:42;16.50;;;10.95;;
26014;SDS011;13793;55.388;37.844;2022-12-18T10:02:29;16.87;;;12.15;;
26014;SDS011;13793;55.388;37.844;2022-12-18T10:05:14;14.17;;;9.40;;
26014;SDS011;13793;55.388;37.844;2022-12-18T10:08:10;13.40;;;8.13;;
26014;SDS011;13793;55.388;37.844;2022-12-18T10:10:57;13.27;;;8.20;;
26014;SDS011;13793;55.388;37.844;2022-12-18T10:13:46;13.57;;;8.07;;
26014;SDS011;13793;55.388;37.844;2022-12-18T10:16:39;11.67;;;7.83;;
26014;SDS011;13793;55.388;37.844;2022-12-18T10:22:21;14.43;;;9.47;;
26014;SDS011;13793;55.388;37.844;2022-12-18T10:25:20;16.97;;;9.43;;
26014;SDS011;13793;55.388;37.844;2022-12-18T10:28:06;14.47;;;8.90;;
26014;SDS011;13793;55.388;37.844;2022-12-18T10:30:56;15.53;;;9.67;;
26014;SDS011;13793;55.388;37.844;2022-12-18T10:33:39;20.20;;;12.20;;
26014;SDS011;13793;55.388;37.844;2022-12-18T10:36:23;16.20;;;10.70;;
26014;SDS011;13793;55.388;37.844;2022-12-18T10:39:16;14.73;;;9.40;;
26014;SDS011;13793;55.388;37.844;2022-12-18T10:42:10;14.87;;;10.40;;
26014;SDS011;13793;55.388;37.844;2022-12-18T10:45:02;15.67;;;9.90;;
26014;SDS011;13793;55.388;37.844;2022-12-18T10:47:50;13.20;;;7.97;;
26014;SDS011;13793;55.388;37.844;2022-12-18T10:50:39;10.37;;;7.43;;
26014;SDS011;13793;55.388;37.844;2022-12-18T10:53:27;13.30;;;7.87;;
26014;SDS011;13793;55.388;37.844;2022-12-18T10:56:11;13.43;;;8.47;;
26014;SDS011;13793;55.388;37.844;2022-12-18T10:59:00;12.13;;;7.80;;
26014;SDS011;13793;55.388;37.844;2022-12-18T11:01:53;12.00;;;7.78;;
26014;SDS011;13793;55.388;37.844;2022-12-18T11:04:34;11.53;;;7.67;;
26014;SDS011;13793;55.388;37.844;2022-12-18T11:07:16;12.07;;;7.73;;
26014;SDS011;13793;55.388;37.844;2022-12-18T11:10:00;12.57;;;8.03;;
26014;SDS011;13793;55.388;37.844;2022-12-18T11:12:48;13.70;;;7.47;;
26014;SDS011;13793;55.388;37.844;2022-12-18T11:15:33;13.87;;;8.70;;
26014;SDS011;13793;55.388;37.844;2022-12-18T11:18:20;12.73;;;8.23;;
26014;SDS011;13793;55.388;37.844;2022-12-18T11:21:12;13.40;;;8.23;;
26014;SDS011;13793;55.388;37.844;2022-12-18T11:23:56;13.77;;;7.80;;
26014;SDS011;13793;55.388;37.844;2022-12-18T11:26:42;11.73;;;7.37;;
26014;SDS011;13793;55.388;37.844;2022-12-18T11:29:33;12.53;;;7.97;;
26014;SDS011;13793;55.388;37.844;2022-12-18T11:35:30;13.20;;;8.03;;
26014;SDS011;13793;55.388;37.844;2022-12-18T11:38:20;12.03;;;7.40;;
26014;SDS011;13793;55.388;37.844;2022-12-18T11:43:56;12.27;;;8.10;;
26014;SDS011;13793;55.388;37.844;2022-12-18T11:46:45;13.83;;;8.50;;
26014;SDS011;13793;55.388;37.844;2022-12-18T11:49:37;13.13;;;8.40;;
26014;SDS011;13793;55.388;37.844;2022-12-18T11:55:15;15.03;;;8.40;;
26014;SDS011;13793;55.388;37.844;2022-12-18T11:58:15;13.53;;;7.57;;
26014;SDS011;13793;55.388;37.844;2022-12-18T12:01:11;12.30;;;7.70;;
26014;SDS011;13793;55.388;37.844;2022-12-18T12:04:10;11.93;;;7.50;;
26014;SDS011;13793;55.388;37.844;2022-12-18T12:07:10;13.80;;;7.60;;
26014;SDS011;13793;55.388;37.844;2022-12-18T12:10:07;15.00;;;8.37;;
26014;SDS011;13793;55.388;37.844;2022-12-18T12:13:00;12.23;;;7.63;;
26014;SDS011;13793;55.388;37.844;2022-12-18T12:21:54;15.23;;;8.57;;
26014;SDS011;13793;55.388;37.844;2022-12-18T12:30:35;12.60;;;7.60;;
26014;SDS011;13793;55.388;37.844;2022-12-18T12:33:16;13.03;;;7.73;;
26014;SDS011;13793;55.388;37.844;2022-12-18T12:36:22;11.67;;;6.90;;
26014;SDS011;13793;55.388;37.844;2022-12-18T12:39:16;13.10;;;8.03;;
26014;SDS011;13793;55.388;37.844;2022-12-18T12:42:03;13.67;;;8.53;;
26014;SDS011;13793;55.388;37.844;2022-12-18T12:45:02;12.50;;;7.90;;
26014;SDS011;13793;55.388;37.844;2022-12-18T12:47:45;12.97;;;8.27;;
26014;SDS011;13793;55.388;37.844;2022-12-18T12:50:29;14.87;;;9.93;;
26014;SDS011;13793;55.388;37.844;2022-12-18T12:53:15;15.87;;;9.97;;
26014;SDS011;13793;55.388;37.844;2022-12-18T12:55:54;15.93;;;9.63;;
26014;SDS011;13793;55.388;37.844;2022-12-18T12:58:44;11.73;;;7.77;;
26014;SDS011;13793;55.388;37.844;2022-12-18T13:01:23;21.67;;;13.60;;
26014;SDS011;13793;55.388;37.844;2022-12-18T13:13:01;16.17;;;9.10;;
26014;SDS011;13793;55.388;37.844;2022-12-18T13:15:48;17.30;;;9.83;;
26014;SDS011;13793;55.388;37.844;2022-12-18T13:18:35;16.27;;;9.43;;
26014;SDS011;13793;55.388;37.844;2022-12-18T13:21:24;14.73;;;8.97;;
26014;SDS011;13793;55.388;37.844;2022-12-18T13:24:16;13.90;;;8.60;;
26014;SDS011;13793;55.388;37.844;2022-12-18T13:44:43;14.53;;;8.50;;
26014;SDS011;13793;55.388;37.844;2022-12-18T13:47:34;16.20;;;9.13;;
26014;SDS011;13793;55.388;37.844;2022-12-18T13:50:23;16.73;;;9.80;;
26014;SDS011;13793;55.388;37.844;2022-12-18T13:53:11;15.70;;;9.07;;
26014;SDS011;13793;55.388;37.844;2022-12-18T13:55:52;18.57;;;9.90;;
26014;SDS011;13793;55.388;37.844;2022-12-18T13:58:37;15.20;;;9.23;;
26014;SDS011;13793;55.388;37.844;2022-12-18T14:01:23;14.70;;;8.93;;
26014;SDS011;13793;55.388;37.844;2022-12-18T14:04:45;16.47;;;10.50;;
26014;SDS011;13793;55.388;37.844;2022-12-18T14:07:04;15.93;;;8.47;;
26014;SDS011;13793;55.388;37.844;2022-12-18T14:10:03;12.93;;;7.90;;
26014;SDS011;13793;55.388;37.844;2022-12-18T14:12:50;16.00;;;7.95;;
26014;SDS011;13793;55.388;37.844;2022-12-18T14:15:43;14.00;;;7.70;;
26014;SDS011;13793;55.388;37.844;2022-12-18T14:18:45;15.23;;;8.00;;
26014;SDS011;13793;55.388;37.844;2022-12-18T14:21:28;13.80;;;8.30;;
26014;SDS011;13793;55.388;37.844;2022-12-18T14:24:14;16.13;;;8.60;;
26014;SDS011;13793;55.388;37.844;2022-12-18T14:27:19;16.97;;;9.18;;
26014;SDS011;13793;55.388;37.844;2022-12-18T14:29:52;15.87;;;9.33;;
26014;SDS011;13793;55.388;37.844;2022-12-18T14:32:42;15.57;;;8.87;;
26014;SDS011;13793;55.388;37.844;2022-12-18T14:35:29;19.47;;;9.17;;
26014;SDS011;13793;55.388;37.844;2022-12-18T14:41:11;16.53;;;9.17;;
26014;SDS011;13793;55.388;37.844;2022-12-18T14:43:52;18.80;;;9.90;;
26014;SDS011;13793;55.388;37.844;2022-12-18T14:46:38;15.20;;;8.58;;
26014;SDS011;13793;55.388;37.844;2022-12-18T14:49:29;21.70;;;10.87;;
26014;SDS011;13793;55.388;37.844;2022-12-18T14:52:18;26.80;;;13.13;;
26014;SDS011;13793;55.388;37.844;2022-12-18T14:55:17;22.37;;;12.77;;
26014;SDS011;13793;55.388;37.844;2022-12-18T14:58:03;35.07;;;16.10;;
26014;SDS011;13793;55.388;37.844;2022-12-18T15:00:50;31.95;;;15.35;;
26014;SDS011;13793;55.388;37.844;2022-12-18T15:03:33;27.60;;;13.53;;
26014;SDS011;13793;55.388;37.844;2022-12-18T15:06:24;30.33;;;13.30;;
26014;SDS011;13793;55.388;37.844;2022-12-18T15:09:23;27.53;;;12.77;;
26014;SDS011;13793;55.388;37.844;2022-12-18T15:12:04;30.07;;;14.70;;
26014;SDS011;13793;55.388;37.844;2022-12-18T15:14:49;32.20;;;15.50;;
26014;SDS011;13793;55.388;37.844;2022-12-18T15:17:34;29.63;;;15.83;;
26014;SDS011;13793;55.388;37.844;2022-12-18T15:20:22;30.23;;;13.03;;
26014;SDS011;13793;55.388;37.844;2022-12-18T15:23:17;26.60;;;13.20;;
26014;SDS011;13793;55.388;37.844;2022-12-18T15:26:00;32.43;;;15.73;;
26014;SDS011;13793;55.388;37.844;2022-12-18T15:28:51;34.43;;;16.40;;
26014;SDS011;13793;55.388;37.844;2022-12-18T15:31:38;27.90;;;13.70;;
26014;SDS011;13793;55.388;37.844;2022-12-18T15:34:27;30.60;;;13.23;;
26014;SDS011;13793;55.388;37.844;2022-12-18T15:37:13;24.63;;;12.93;;
26014;SDS011;13793;55.388;37.844;2022-12-18T15:39:58;22.43;;;11.23;;
26014;SDS011;13793;55.388;37.844;2022-12-18T15:42:43;22.90;;;11.27;;
26014;SDS011;13793;55.388;37.844;2022-12-18T15:45:41;23.10;;;10.97;;
26014;SDS011;13793;55.388;37.844;2022-12-18T15:48:29;25.53;;;11.27;;
26014;SDS011;13793;55.388;37.844;2022-12-18T15:51:22;26.03;;;10.97;;
26014;SDS011;13793;55.388;37.844;2022-12-18T15:54:10;21.70;;;10.77;;
26014;SDS011;13793;55.388;37.844;2022-12-18T15:56:57;20.47;;;11.20;;
26014;SDS011;13793;55.388;37.844;2022-12-18T15:59:42;21.20;;;10.07;;
26014;SDS011;13793;55.388;37.844;2022-12-18T16:02:31;19.13;;;9.70;;
26014;SDS011;13793;55.388;37.844;2022-12-18T16:05:13;18.90;;;9.57;;
26014;SDS011;13793;55.388;37.844;2022-12-18T16:10:44;15.53;;;9.43;;
26014;SDS011;13793;55.388;37.844;2022-12-18T16:13:29;19.10;;;8.90;;
26014;SDS011;13793;55.388;37.844;2022-12-18T16:16:12;16.77;;;9.73;;
26014;SDS011;13793;55.388;37.844;2022-12-18T16:18:56;25.20;;;13.33;;
26014;SDS011;13793;55.388;37.844;2022-12-18T16:21:48;15.40;;;8.80;;
26014;SDS011;13793;55.388;37.844;2022-12-18T16:24:37;15.33;;;9.30;;
26014;SDS011;13793;55.388;37.844;2022-12-18T16:27:17;16.03;;;9.03;;
26014;SDS011;13793;55.388;37.844;2022-12-18T16:30:02;15.33;;;8.80;;
26014;SDS011;13793;55.388;37.844;2022-12-18T16:32:48;15.40;;;8.53;;
26014;SDS011;13793;55.388;37.844;2022-12-18T16:35:36;14.90;;;8.65;;
26014;SDS011;13793;55.388;37.844;2022-12-18T16:38:26;16.97;;;8.93;;
26014;SDS011;13793;55.388;37.844;2022-12-18T16:41:15;14.67;;;8.43;;
26014;SDS011;13793;55.388;37.844;2022-12-18T16:44:11;14.43;;;8.80;;
26014;SDS011;13793;55.388;37.844;2022-12-18T16:46:58;13.50;;;8.53;;
26014;SDS011;13793;55.388;37.844;2022-12-18T16:49:44;15.77;;;8.47;;
26014;SDS011;13793;55.388;37.844;2022-12-18T16:52:34;14.13;;;8.07;;
26014;SDS011;13793;55.388;37.844;2022-12-18T16:55:23;13.77;;;8.27;;
26014;SDS011;13793;55.388;37.844;2022-12-18T16:58:15;14.33;;;8.83;;
26014;SDS011;13793;55.388;37.844;2022-12-18T17:01:06;15.37;;;9.10;;
26014;SDS011;13793;55.388;37.844;2022-12-18T17:03:54;15.70;;;8.97;;